createdAt,value
2019-02-07T00:00:31.382Z,95845.11
2019-02-07T00:01:34.961Z,95844.43
2019-02-07T00:02:38.465Z,95848.16
2019-02-07T00:03:42.054Z,95847.23
2019-02-07T00:04:45.561Z,95848.52
2019-02-07T00:05:49.314Z,95846.30
2019-02-07T00:06:54.710Z,95843.11
2019-02-07T00:07:58.261Z,95842.06
2019-02-07T00:09:01.701Z,95841.25
2019-02-07T00:10:08.188Z,95834.80
2019-02-07T00:11:11.695Z,95838.97
2019-02-07T00:12:15.203Z,95834.85
2019-02-07T00:13:18.752Z,95836.61
2019-02-07T00:14:22.429Z,95825.47
2019-02-07T00:15:25.854Z,95826.23
2019-02-07T00:16:29.299Z,95827.52
2019-02-07T00:17:32.739Z,95833.40
2019-02-07T00:18:36.282Z,95824.78
2019-02-07T00:19:39.700Z,95825.96
2019-02-07T00:20:43.848Z,95827.17
2019-02-07T00:21:47.362Z,95826.18
2019-02-07T00:22:50.865Z,95819.56
2019-02-07T00:23:54.591Z,95819.43
2019-02-07T00:24:58.099Z,95821.38
2019-02-07T00:26:01.549Z,95816.58
2019-02-07T00:27:05.116Z,95811.17
2019-02-07T00:28:08.618Z,95815.97
2019-02-07T00:29:12.064Z,95816.27
2019-02-07T00:30:20.298Z,95811.12
2019-02-07T00:31:23.737Z,95806.42
2019-02-07T00:32:27.163Z,95811.83
2019-02-07T00:33:30.676Z,95816.31
2019-02-07T00:34:34.288Z,95813.91
2019-02-07T00:35:38.093Z,95810.27
2019-02-07T00:36:41.524Z,95812.38
2019-02-07T00:37:45.302Z,95812.16
2019-02-07T00:38:48.742Z,95819.37
2019-02-07T00:39:52.271Z,95816.70
2019-02-07T00:40:55.903Z,95811.34
2019-02-07T00:41:59.483Z,95814.55
2019-02-07T00:43:03.071Z,95817.67
2019-02-07T00:44:06.646Z,95815.89
2019-02-07T00:45:12.637Z,95817.55
2019-02-07T00:46:16.098Z,95816.79
2019-02-07T00:47:19.537Z,95819.66
2019-02-07T00:48:23.136Z,95821.81
2019-02-07T00:49:26.663Z,95816.84
2019-02-07T00:50:31.088Z,95821.74
2019-02-07T00:51:34.749Z,95814.04
2019-02-07T00:52:38.260Z,95814.73
2019-02-07T00:53:41.831Z,95815.91
2019-02-07T00:54:45.345Z,95814.02
2019-02-07T00:55:48.820Z,95816.07
2019-02-07T00:56:52.467Z,95812.19
2019-02-07T00:57:56.011Z,95816.17
2019-02-07T00:58:59.527Z,95809.92
2019-02-07T01:00:03.358Z,95809.48
2019-02-07T01:01:07.054Z,95810.80
2019-02-07T01:02:10.631Z,95803.88
2019-02-07T01:03:14.135Z,95809.80
2019-02-07T01:04:17.910Z,95811.98
2019-02-07T01:05:22.751Z,95807.97
2019-02-07T01:06:26.340Z,95806.80
2019-02-07T01:07:29.847Z,95803.93
2019-02-07T01:08:33.345Z,95806.45
2019-02-07T01:09:36.857Z,95804.85
2019-02-07T01:10:40.422Z,95801.38
2019-02-07T01:11:43.885Z,95807.90
2019-02-07T01:12:47.477Z,95803.94
2019-02-07T01:13:50.987Z,95803.47
2019-02-07T01:15:01.694Z,95804.43
2019-02-07T01:15:59.805Z,95799.72
2019-02-07T01:17:03.403Z,95798.69
2019-02-07T01:18:07.348Z,95801.16
2019-02-07T01:19:11.701Z,95796.95
2019-02-07T01:20:17.648Z,95802.16
2019-02-07T01:21:21.097Z,95801.40
2019-02-07T01:22:24.620Z,95796.72
2019-02-07T01:23:28.250Z,95796.11
2019-02-07T01:24:31.725Z,95789.52
2019-02-07T01:25:35.290Z,95792.45
2019-02-07T01:26:38.724Z,95794.48
2019-02-07T01:27:42.333Z,95791.29
2019-02-07T01:28:45.787Z,95788.25
2019-02-07T01:29:49.366Z,95791.55
2019-02-07T01:30:52.947Z,95789.19
2019-02-07T01:31:56.522Z,95785.92
2019-02-07T01:33:00.251Z,95781.41
2019-02-07T01:34:03.767Z,95778.77
2019-02-07T01:35:07.733Z,95780.01
2019-02-07T01:36:11.234Z,95783.58
2019-02-07T01:37:14.742Z,95772.27
2019-02-07T01:38:18.199Z,95771.39
2019-02-07T01:39:21.703Z,95771.15
2019-02-07T01:40:25.212Z,95769.50
2019-02-07T01:41:28.799Z,95764.13
2019-02-07T01:42:32.305Z,95767.63
2019-02-07T01:43:35.755Z,95762.48
2019-02-07T01:44:39.283Z,95765.97
2019-02-07T01:45:43.134Z,95761.98
2019-02-07T01:46:46.911Z,95760.48
2019-02-07T01:47:50.987Z,95756.73
2019-02-07T01:48:54.672Z,95756.39
2019-02-07T01:49:58.179Z,95756.14
2019-02-07T01:51:01.626Z,95753.56
2019-02-07T01:52:05.501Z,95752.16
2019-02-07T01:53:09.103Z,95746.32
2019-02-07T01:54:12.542Z,95752.41
2019-02-07T01:55:16.241Z,95750.45
2019-02-07T01:56:19.703Z,95747.81
2019-02-07T01:57:23.203Z,95746.47
2019-02-07T01:58:26.713Z,95743.72
2019-02-07T01:59:30.412Z,95740.95
2019-02-07T02:00:34.211Z,95742.61
2019-02-07T02:01:37.654Z,95737.77
2019-02-07T02:02:41.165Z,95737.58
2019-02-07T02:03:44.596Z,95739.63
2019-02-07T02:04:48.138Z,95735.66
2019-02-07T02:05:51.601Z,95739.99
2019-02-07T02:06:55.029Z,95738.29
2019-02-07T02:07:58.615Z,95737.94
2019-02-07T02:09:02.188Z,95739.16
2019-02-07T02:10:08.699Z,95734.02
2019-02-07T02:11:12.218Z,95733.96
2019-02-07T02:12:15.726Z,95732.47
2019-02-07T02:13:19.376Z,95732.87
2019-02-07T02:14:23.091Z,95725.22
2019-02-07T02:15:26.788Z,95724.73
2019-02-07T02:16:30.220Z,95720.80
2019-02-07T02:17:33.731Z,95724.53
2019-02-07T02:18:37.244Z,95729.66
2019-02-07T02:19:42.287Z,95721.36
2019-02-07T02:20:45.743Z,95720.06
2019-02-07T02:21:49.255Z,95723.99
2019-02-07T02:22:53.933Z,95720.95
2019-02-07T02:23:57.505Z,95717.72
2019-02-07T02:25:01.278Z,95714.22
2019-02-07T02:26:05.179Z,95720.19
2019-02-07T02:27:08.629Z,95716.54
2019-02-07T02:28:12.425Z,95719.36
2019-02-07T02:29:16.502Z,95709.98
2019-02-07T02:30:22.943Z,95709.62
2019-02-07T02:31:26.392Z,95705.63
2019-02-07T02:32:29.904Z,95710.08
2019-02-07T02:33:33.345Z,95712.81
2019-02-07T02:34:36.861Z,95708.95
2019-02-07T02:35:40.295Z,95712.20
2019-02-07T02:36:43.852Z,95714.89
2019-02-07T02:37:47.543Z,95712.09
2019-02-07T02:38:50.986Z,95708.76
2019-02-07T02:39:54.498Z,95710.56
2019-02-07T02:40:58.178Z,95707.88
2019-02-07T02:42:02.082Z,95705.59
2019-02-07T02:43:05.845Z,95700.70
2019-02-07T02:44:09.554Z,95693.13
2019-02-07T02:45:19.029Z,95693.98
2019-02-07T02:46:23.019Z,95682.18
2019-02-07T02:47:26.603Z,95683.93
2019-02-07T02:48:30.272Z,95686.36
2019-02-07T02:49:33.857Z,95678.33
2019-02-07T02:50:37.425Z,95680.69
2019-02-07T02:51:40.929Z,95678.58
2019-02-07T02:52:44.532Z,95680.55
2019-02-07T02:53:48.224Z,95676.86
2019-02-07T02:54:51.743Z,95674.97
2019-02-07T02:55:55.451Z,95673.52
2019-02-07T02:56:59.144Z,95667.53
2019-02-07T02:58:03.175Z,95674.69
2019-02-07T02:59:06.743Z,95679.30
2019-02-07T03:00:21.321Z,95680.52
2019-02-07T03:01:26.479Z,95682.00
2019-02-07T03:02:31.628Z,95681.70
2019-02-07T03:03:42.871Z,95673.59
2019-02-07T03:04:56.460Z,95675.34
2019-02-07T03:06:13.342Z,95674.36
2019-02-07T03:07:18.593Z,95678.96
2019-02-07T03:08:27.181Z,95674.56
2019-02-07T03:09:44.789Z,95675.63
2019-02-07T03:11:05.991Z,95675.45
2019-02-07T03:12:16.724Z,95669.09
2019-02-07T03:13:24.393Z,95662.66
2019-02-07T03:14:35.419Z,95662.11
2019-02-07T03:15:49.135Z,95663.47
2019-02-07T03:16:47.583Z,95666.39
2019-02-07T03:18:04.502Z,95662.83
2019-02-07T03:19:09.601Z,95653.75
2019-02-07T03:20:14.808Z,95653.73
2019-02-07T03:21:35.833Z,95657.97
2019-02-07T03:22:43.807Z,95655.66
2019-02-07T03:24:03.949Z,95651.47
2019-02-07T03:25:12.086Z,95652.02
2019-02-07T03:26:20.119Z,95638.19
2019-02-07T03:27:41.366Z,95639.87
2019-02-07T03:28:46.452Z,95639.78
2019-02-07T03:30:07.630Z,95634.52
2019-02-07T03:31:12.849Z,95636.05
2019-02-07T03:32:23.400Z,95631.30
2019-02-07T03:33:43.478Z,95627.47
2019-02-07T03:34:51.490Z,95628.61
2019-02-07T03:35:56.846Z,95623.88
2019-02-07T03:37:04.820Z,95625.57
2019-02-07T03:38:18.690Z,95618.02
2019-02-07T03:39:26.923Z,95611.27
2019-02-07T03:40:40.829Z,95613.48
2019-02-07T03:41:46.087Z,95612.00
2019-02-07T03:42:51.609Z,95607.98
2019-02-07T03:43:56.674Z,95612.55
2019-02-07T03:45:18.034Z,95610.44
2019-02-07T03:46:31.834Z,95606.81
2019-02-07T03:47:39.825Z,95605.46
2019-02-07T03:48:57.026Z,95605.67
2019-02-07T03:50:02.226Z,95604.08
2019-02-07T03:51:16.244Z,95602.83
2019-02-07T03:52:36.482Z,95609.27
2019-02-07T03:53:41.629Z,95600.03
2019-02-07T03:54:49.532Z,95597.61
2019-02-07T03:56:06.328Z,95600.58
2019-02-07T03:57:14.094Z,95597.48
2019-02-07T03:58:19.257Z,95596.83
2019-02-07T03:59:40.522Z,95545.01
2019-02-07T04:00:51.606Z,95599.19
2019-02-07T04:02:08.691Z,95593.33
2019-02-07T04:03:19.636Z,95597.17
2019-02-07T04:04:27.500Z,95596.22
2019-02-07T04:05:38.356Z,95601.25
2019-02-07T04:07:01.281Z,95599.89
2019-02-07T04:08:15.671Z,95599.71
2019-02-07T04:09:20.843Z,95603.56
2019-02-07T04:10:29.179Z,95608.59
2019-02-07T04:11:46.589Z,95603.99
2019-02-07T04:12:51.740Z,95602.37
2019-02-07T04:14:12.836Z,95605.52
2019-02-07T04:15:17.971Z,95603.95
2019-02-07T04:16:43.261Z,95605.58
2019-02-07T04:17:53.599Z,95605.20
2019-02-07T04:19:13.441Z,95603.78
2019-02-07T04:20:30.469Z,95603.86
2019-02-07T04:21:35.632Z,95589.15
2019-02-07T04:22:43.504Z,95589.67
2019-02-07T04:23:51.526Z,95594.45
2019-02-07T04:25:05.538Z,95584.14
2019-02-07T04:26:26.831Z,95586.19
2019-02-07T04:27:40.802Z,95583.23
2019-02-07T04:28:46.183Z,95581.25
2019-02-07T04:29:54.130Z,95576.31
2019-02-07T04:31:05.340Z,95581.54
2019-02-07T04:32:28.641Z,95574.95
2019-02-07T04:33:49.459Z,95574.11
2019-02-07T04:35:06.649Z,95575.86
2019-02-07T04:36:11.741Z,95581.41
2019-02-07T04:37:16.844Z,95576.00
2019-02-07T04:38:30.907Z,95573.73
2019-02-07T04:39:52.136Z,95575.78
2019-02-07T04:41:13.359Z,95576.61
2019-02-07T04:42:33.469Z,95575.84
2019-02-07T04:43:53.791Z,95568.17
2019-02-07T04:45:01.812Z,95570.42
2019-02-07T04:46:09.835Z,95557.91
2019-02-07T04:47:26.889Z,95559.44
2019-02-07T04:48:49.985Z,95557.30
2019-02-07T04:49:57.707Z,95552.41
2019-02-07T04:51:18.480Z,95560.55
2019-02-07T04:52:39.373Z,95507.76
2019-02-07T04:53:47.173Z,95558.14
2019-02-07T04:54:54.890Z,95550.63
2019-02-07T04:56:02.575Z,95554.16
2019-02-07T04:57:10.376Z,95551.31
2019-02-07T04:58:24.097Z,95542.03
2019-02-07T04:59:31.945Z,95552.41
2019-02-07T05:00:39.905Z,95552.46
2019-02-07T05:02:02.967Z,95548.88
2019-02-07T05:03:20.243Z,95550.53
2019-02-07T05:04:37.266Z,95552.61
2019-02-07T05:05:47.920Z,95551.55
2019-02-07T05:07:07.875Z,95561.09
2019-02-07T05:08:21.880Z,95561.73
2019-02-07T05:09:32.562Z,95557.16
2019-02-07T05:10:52.487Z,95553.16
2019-02-07T05:12:13.707Z,95558.05
2019-02-07T05:13:33.540Z,95550.29
2019-02-07T05:14:54.876Z,95552.28
2019-02-07T05:16:14.661Z,95557.69
2019-02-07T05:17:35.534Z,95553.62
2019-02-07T05:18:40.682Z,95550.23
2019-02-07T05:20:01.566Z,95543.97
2019-02-07T05:21:22.770Z,95548.88
2019-02-07T05:22:39.594Z,95536.07
2019-02-07T05:23:56.791Z,95544.14
2019-02-07T05:25:02.218Z,95541.03
2019-02-07T05:26:13.283Z,95535.94
2019-02-07T05:27:21.236Z,95531.75
2019-02-07T05:28:42.864Z,95543.47
2019-02-07T05:29:50.681Z,95544.39
2019-02-07T05:30:55.762Z,95542.19
2019-02-07T05:32:09.670Z,95544.03
2019-02-07T05:33:23.555Z,95542.73
2019-02-07T05:34:31.466Z,95540.59
2019-02-07T05:35:52.464Z,95543.02
2019-02-07T05:37:03.440Z,95540.90
2019-02-07T05:38:08.639Z,95542.73
2019-02-07T05:39:22.782Z,95541.27
2019-02-07T05:40:45.612Z,95547.13
2019-02-07T05:42:08.478Z,95542.43
2019-02-07T05:43:13.568Z,95546.23
2019-02-07T05:44:30.293Z,95543.81
2019-02-07T05:45:41.426Z,95541.93
2019-02-07T05:46:52.088Z,95545.95
2019-02-07T05:48:12.403Z,95541.09
2019-02-07T05:49:17.719Z,95541.31
2019-02-07T05:50:22.876Z,95542.94
2019-02-07T05:51:36.980Z,95537.19
2019-02-07T05:52:42.139Z,95552.41
2019-02-07T05:53:55.827Z,95545.97
2019-02-07T05:55:15.717Z,95548.80
2019-02-07T05:56:29.374Z,95551.50
2019-02-07T05:57:34.511Z,95548.00
2019-02-07T05:58:48.543Z,95550.58
2019-02-07T05:59:53.593Z,95547.61
2019-02-07T06:01:13.642Z,95545.91
2019-02-07T06:02:18.803Z,95546.55
2019-02-07T06:03:35.910Z,95542.03
2019-02-07T06:04:43.876Z,95544.61
2019-02-07T06:05:51.527Z,95546.80
2019-02-07T06:06:56.607Z,95532.52
2019-02-07T06:08:01.682Z,95532.60
2019-02-07T06:09:18.189Z,95532.23
2019-02-07T06:10:23.261Z,95533.58
2019-02-07T06:11:44.347Z,95536.86
2019-02-07T06:12:55.029Z,95549.75
2019-02-07T06:14:00.169Z,95537.08
2019-02-07T06:15:18.201Z,95549.69
2019-02-07T06:16:23.281Z,95543.22
2019-02-07T06:17:43.129Z,95546.27
2019-02-07T06:18:53.874Z,95541.94
2019-02-07T06:20:04.738Z,95540.88
2019-02-07T06:21:12.653Z,95538.02
2019-02-07T06:22:23.636Z,95538.96
2019-02-07T06:23:28.717Z,95542.42
2019-02-07T06:24:42.877Z,95540.59
2019-02-07T06:25:50.800Z,95534.42
2019-02-07T06:26:55.897Z,95536.98
2019-02-07T06:28:18.688Z,95539.64
2019-02-07T06:29:23.946Z,95535.44
2019-02-07T06:30:29.530Z,95536.81
2019-02-07T06:31:34.688Z,95533.63
2019-02-07T06:32:55.630Z,95536.63
2019-02-07T06:34:16.615Z,95538.14
2019-02-07T06:35:33.686Z,95533.36
2019-02-07T06:36:54.721Z,95536.17
2019-02-07T06:38:14.605Z,95532.25
2019-02-07T06:39:34.522Z,95539.43
2019-02-07T06:40:55.348Z,95536.98
2019-02-07T06:42:03.566Z,95533.23
2019-02-07T06:43:25.118Z,95536.82
2019-02-07T06:44:30.326Z,95532.89
2019-02-07T06:45:41.206Z,95542.37
2019-02-07T06:46:46.648Z,95543.23
2019-02-07T06:48:00.554Z,95537.09
2019-02-07T06:49:05.783Z,95543.91
2019-02-07T06:50:11.324Z,95544.22
2019-02-07T06:51:25.417Z,95539.52
2019-02-07T06:52:42.802Z,95547.95
2019-02-07T06:53:47.855Z,95536.81
2019-02-07T06:55:09.200Z,95542.19
2019-02-07T06:56:26.062Z,95545.69
2019-02-07T06:57:47.092Z,95541.23
2019-02-07T06:58:58.256Z,95536.84
2019-02-07T07:00:14.979Z,95543.22
2019-02-07T07:01:20.323Z,95540.40
2019-02-07T07:02:28.147Z,95543.34
2019-02-07T07:03:33.481Z,95545.53
2019-02-07T07:04:44.623Z,95551.20
2019-02-07T07:05:58.579Z,95551.97
2019-02-07T07:07:12.545Z,95550.35
2019-02-07T07:08:17.968Z,95555.45
2019-02-07T07:09:39.235Z,95552.65
2019-02-07T07:10:44.318Z,95551.95
2019-02-07T07:11:49.534Z,95556.39
2019-02-07T07:13:00.894Z,95560.14
2019-02-07T07:14:12.362Z,95565.69
2019-02-07T07:15:35.393Z,95555.32
2019-02-07T07:16:58.387Z,95558.94
2019-02-07T07:18:06.144Z,95556.83
2019-02-07T07:19:29.333Z,95563.52
2019-02-07T07:20:37.253Z,95558.73
2019-02-07T07:21:54.212Z,95557.44
2019-02-07T07:23:02.268Z,95564.80
2019-02-07T07:24:19.136Z,95554.89
2019-02-07T07:25:24.310Z,95557.37
2019-02-07T07:26:44.057Z,95551.17
2019-02-07T07:28:07.067Z,95553.53
2019-02-07T07:29:28.140Z,95551.69
2019-02-07T07:30:35.862Z,95553.16
2019-02-07T07:31:57.178Z,95550.21
2019-02-07T07:33:18.474Z,95541.89
2019-02-07T07:34:39.554Z,95549.47
2019-02-07T07:35:56.799Z,95541.84
2019-02-07T07:37:17.962Z,95546.62
2019-02-07T07:38:32.033Z,95544.95
2019-02-07T07:39:55.206Z,95547.75
2019-02-07T07:42:45.939Z,95548.31
2019-02-07T07:43:51.477Z,95553.31
2019-02-07T07:45:00.336Z,95541.70
2019-02-07T07:46:15.196Z,95541.34
2019-02-07T07:47:35.715Z,95554.14
2019-02-07T07:48:42.143Z,95532.65
2019-02-07T07:49:53.558Z,95542.84
2019-02-07T07:51:15.168Z,95544.77
2019-02-07T07:52:23.229Z,95546.20
2019-02-07T07:53:40.288Z,95547.11
2019-02-07T07:54:56.180Z,95549.03
2019-02-07T07:56:15.843Z,95544.92
2019-02-07T07:57:27.313Z,95549.17
2019-02-07T07:58:39.624Z,95549.23
2019-02-07T07:59:50.543Z,95549.02
2019-02-07T08:00:56.005Z,95547.86
2019-02-07T08:02:16.446Z,95552.73
2019-02-07T08:03:22.386Z,95547.11
2019-02-07T08:04:30.335Z,95546.10
2019-02-07T08:05:53.511Z,95550.14
2019-02-07T08:06:58.809Z,95552.66
2019-02-07T08:08:22.220Z,95539.95
2019-02-07T08:09:33.214Z,95546.78
2019-02-07T08:11:03.101Z,95544.14
2019-02-07T08:12:35.472Z,95540.25
2019-02-07T08:14:02.903Z,95542.66
2019-02-07T08:15:19.723Z,95545.09
2019-02-07T08:16:36.056Z,95543.20
2019-02-07T08:17:47.443Z,95539.63
2019-02-07T08:18:50.829Z,95542.81
2019-02-07T08:19:58.750Z,95544.79
2019-02-07T08:21:19.926Z,95540.59
2019-02-07T08:22:53.106Z,95541.13
2019-02-07T08:24:07.148Z,95539.15
2019-02-07T08:25:18.043Z,95533.05
2019-02-07T08:26:29.071Z,95540.91
2019-02-07T08:27:50.328Z,95538.78
2019-02-07T08:28:59.787Z,95543.39
2019-02-07T08:30:24.456Z,95544.20
2019-02-07T08:31:45.604Z,95542.59
2019-02-07T08:33:09.975Z,95544.97
2019-02-07T08:34:32.426Z,95545.70
2019-02-07T08:35:49.609Z,95547.55
2019-02-07T08:36:57.760Z,95542.14
2019-02-07T08:38:21.207Z,95537.61
2019-02-07T08:39:35.310Z,95539.07
2019-02-07T08:40:48.960Z,95538.99
2019-02-07T08:42:05.780Z,95549.25
2019-02-07T08:43:26.005Z,95544.61
2019-02-07T08:44:31.121Z,95544.73
2019-02-07T08:45:42.145Z,95544.25
2019-02-07T08:47:03.163Z,95542.34
2019-02-07T08:48:10.919Z,95539.44
2019-02-07T08:49:18.911Z,95548.33
2019-02-07T08:50:39.275Z,95548.00
2019-02-07T08:51:44.434Z,95542.22
2019-02-07T08:52:52.584Z,95547.87
2019-02-07T08:54:00.360Z,95546.84
2019-02-07T08:55:14.945Z,95543.65
2019-02-07T08:56:22.594Z,95533.20
2019-02-07T08:57:27.863Z,95534.67
2019-02-07T08:58:32.956Z,95536.53
2019-02-07T08:59:38.159Z,95535.06
2019-02-07T09:00:43.416Z,95538.33
2019-02-07T09:01:48.922Z,95529.00
2019-02-07T09:03:02.920Z,95525.59
2019-02-07T09:04:16.857Z,95527.91
2019-02-07T09:05:24.716Z,95527.50
2019-02-07T09:06:32.743Z,95520.73
2019-02-07T09:07:40.870Z,95526.77
2019-02-07T09:08:46.255Z,95525.38
2019-02-07T09:09:51.668Z,95530.28
2019-02-07T09:10:56.881Z,95528.58
2019-02-07T09:12:19.926Z,95528.90
2019-02-07T09:13:34.191Z,95526.40
2019-02-07T09:14:54.504Z,95528.16
2019-02-07T09:16:15.799Z,95523.81
2019-02-07T09:17:32.543Z,95522.17
2019-02-07T09:18:46.200Z,95526.58
2019-02-07T09:20:00.379Z,95529.27
2019-02-07T09:21:15.762Z,95524.83
2019-02-07T09:22:36.973Z,95522.47
2019-02-07T09:24:00.183Z,95527.11
2019-02-07T09:25:09.071Z,95524.73
2019-02-07T09:26:30.364Z,95525.96
2019-02-07T09:27:44.313Z,95512.41
2019-02-07T09:28:59.266Z,95514.70
2019-02-07T09:30:08.046Z,95517.29
2019-02-07T09:31:29.337Z,95513.52
2019-02-07T09:32:50.746Z,95511.06
2019-02-07T09:34:12.013Z,95513.59
2019-02-07T09:35:20.194Z,95516.84
2019-02-07T09:36:27.745Z,95517.41
2019-02-07T09:37:54.186Z,95518.18
2019-02-07T09:39:00.586Z,95516.06
2019-02-07T09:40:25.633Z,95507.33
2019-02-07T09:41:33.715Z,95520.73
2019-02-07T09:42:44.976Z,95509.83
2019-02-07T09:44:06.302Z,95506.59
2019-02-07T09:45:14.437Z,95503.80
2019-02-07T09:46:35.417Z,95504.34
2019-02-07T09:47:40.566Z,95504.77
2019-02-07T09:49:01.542Z,95496.87
2019-02-07T09:50:09.780Z,95501.95
2019-02-07T09:51:15.030Z,95501.19
2019-02-07T09:52:23.275Z,95501.75
2019-02-07T09:53:28.800Z,95499.59
2019-02-07T09:54:36.959Z,95503.15
2019-02-07T09:55:44.768Z,95500.22
2019-02-07T09:56:49.941Z,95495.25
2019-02-07T09:58:06.670Z,95497.41
2019-02-07T09:59:24.187Z,95501.20
2019-02-07T10:00:29.393Z,95498.61
2019-02-07T10:01:37.660Z,95494.29
2019-02-07T10:02:49.869Z,95506.61
2019-02-07T10:04:00.793Z,95502.08
2019-02-07T10:05:09.142Z,95500.45
2019-02-07T10:06:14.527Z,95499.06
2019-02-07T10:07:19.757Z,95500.89
2019-02-07T10:08:25.280Z,95501.85
2019-02-07T10:09:39.332Z,95498.61
2019-02-07T10:10:56.394Z,95492.98
2019-02-07T10:12:04.343Z,95499.79
2019-02-07T10:13:15.041Z,95498.59
2019-02-07T10:14:23.079Z,95499.67
2019-02-07T10:15:44.329Z,95497.25
2019-02-07T10:17:04.510Z,95487.75
2019-02-07T10:18:18.794Z,95492.05
2019-02-07T10:19:26.810Z,95496.14
2019-02-07T10:20:31.909Z,95494.84
2019-02-07T10:21:37.045Z,95493.01
2019-02-07T10:22:53.894Z,95486.83
2019-02-07T10:24:08.186Z,95487.59
2019-02-07T10:25:16.298Z,95486.63
2019-02-07T10:26:27.171Z,95486.83
2019-02-07T10:27:41.082Z,95482.93
2019-02-07T10:29:02.369Z,95492.23
2019-02-07T10:30:16.039Z,95485.28
2019-02-07T10:31:21.620Z,95492.41
2019-02-07T10:32:26.983Z,95487.97
2019-02-07T10:33:38.238Z,95487.43
2019-02-07T10:34:49.316Z,95482.46
2019-02-07T10:36:00.407Z,95482.01
2019-02-07T10:37:08.881Z,95481.44
2019-02-07T10:38:29.205Z,95480.87
2019-02-07T10:39:34.450Z,95479.69
2019-02-07T10:40:39.700Z,95478.30
2019-02-07T10:41:56.707Z,95474.15
2019-02-07T10:43:10.982Z,95475.02
2019-02-07T10:44:16.177Z,95474.99
2019-02-07T10:45:21.505Z,95476.71
2019-02-07T10:46:38.556Z,95468.38
2019-02-07T10:47:43.722Z,95471.63
2019-02-07T10:48:57.847Z,95463.55
2019-02-07T10:50:03.049Z,95466.77
2019-02-07T10:51:24.209Z,95460.92
2019-02-07T10:52:40.088Z,95461.23
2019-02-07T10:53:47.829Z,95460.01
2019-02-07T10:54:53.131Z,95463.33
2019-02-07T10:55:58.283Z,95463.90
2019-02-07T10:57:19.706Z,95462.80
2019-02-07T10:58:33.887Z,95464.74
2019-02-07T10:59:47.934Z,95461.76
2019-02-07T11:01:09.480Z,95462.30
2019-02-07T11:02:23.790Z,95458.63
2019-02-07T11:03:45.201Z,95460.41
2019-02-07T11:05:02.352Z,95457.38
2019-02-07T11:06:23.849Z,95454.69
2019-02-07T11:07:28.979Z,95451.03
2019-02-07T11:08:34.047Z,95451.45
2019-02-07T11:09:55.114Z,95443.66
2019-02-07T11:11:09.047Z,95443.66
2019-02-07T11:12:28.979Z,95441.61
2019-02-07T11:13:36.863Z,95438.55
2019-02-07T11:15:00.304Z,95437.31
2019-02-07T11:17:54.766Z,95437.53
2019-02-07T11:19:20.995Z,95429.95
2019-02-07T11:20:19.242Z,95424.69
2019-02-07T11:21:24.400Z,95422.42
2019-02-07T11:22:32.179Z,95423.63
2019-02-07T11:23:54.701Z,95426.30
2019-02-07T11:25:05.803Z,95421.85
2019-02-07T11:26:28.903Z,95415.53
2019-02-07T11:27:50.723Z,95421.13
2019-02-07T11:29:12.280Z,95421.95
2019-02-07T11:30:25.567Z,95421.89
2019-02-07T11:31:31.073Z,95421.13
2019-02-07T11:32:54.183Z,95430.23
2019-02-07T11:34:06.800Z,95422.36
2019-02-07T11:35:14.610Z,95425.66
2019-02-07T11:36:28.931Z,95417.09
2019-02-07T11:37:50.053Z,95419.34
2019-02-07T11:39:04.278Z,95421.22
2019-02-07T11:40:30.275Z,95415.08
2019-02-07T11:41:37.362Z,95412.25
2019-02-07T11:43:08.686Z,95410.61
2019-02-07T11:44:13.979Z,95408.27
2019-02-07T11:45:36.910Z,95398.80
2019-02-07T11:46:42.847Z,95412.58
2019-02-07T11:47:50.740Z,95403.62
2019-02-07T11:49:06.820Z,95406.83
2019-02-07T11:50:33.013Z,95404.77
2019-02-07T11:52:07.099Z,95413.08
2019-02-07T11:53:17.112Z,95417.20
2019-02-07T11:54:25.171Z,95410.36
2019-02-07T11:56:12.518Z,95402.95
2019-02-07T11:58:04.692Z,95402.86
2019-02-07T11:59:10.379Z,95405.81
2019-02-07T12:00:21.858Z,95399.71
2019-02-07T12:01:44.704Z,95398.74
2019-02-07T12:02:55.643Z,95396.50
2019-02-07T12:04:01.612Z,95399.24
2019-02-07T12:05:11.943Z,95402.17
2019-02-07T12:06:20.027Z,95398.75
2019-02-07T12:07:37.938Z,95400.38
2019-02-07T12:08:51.578Z,95397.05
2019-02-07T12:10:08.751Z,95399.08
2019-02-07T12:11:29.852Z,95396.97
2019-02-07T12:12:43.986Z,95392.21
2019-02-07T12:14:08.748Z,95395.90
2019-02-07T12:15:30.063Z,95393.30
2019-02-07T12:16:44.402Z,95399.63
2019-02-07T12:17:58.181Z,95395.84
2019-02-07T12:19:03.417Z,95394.45
2019-02-07T12:20:31.992Z,95400.48
2019-02-07T12:21:55.181Z,95393.28
2019-02-07T12:23:00.421Z,95397.09
2019-02-07T12:24:11.115Z,95385.95
2019-02-07T12:25:16.280Z,95385.95
2019-02-07T12:26:27.440Z,95391.60
2019-02-07T12:27:35.357Z,95388.23
2019-02-07T12:28:58.826Z,95396.46
2019-02-07T12:30:07.307Z,95390.70
2019-02-07T12:31:17.936Z,95394.80
2019-02-07T12:32:37.736Z,95389.80
2019-02-07T12:33:48.883Z,95385.53
2019-02-07T12:34:55.643Z,95384.98
2019-02-07T12:36:00.864Z,95378.66
2019-02-07T12:37:06.466Z,95386.79
2019-02-07T12:38:21.534Z,95379.37
2019-02-07T12:39:29.659Z,95380.86
2019-02-07T12:40:34.929Z,95378.20
2019-02-07T12:41:41.901Z,95375.37
2019-02-07T12:42:47.541Z,95380.41
2019-02-07T12:47:33.882Z,95378.52
2019-02-07T12:48:44.917Z,95375.41
2019-02-07T12:49:52.499Z,95376.97
2019-02-07T12:51:00.251Z,95377.77
2019-02-07T12:52:21.488Z,95373.81
2019-02-07T12:53:26.642Z,95379.03
2019-02-07T12:54:37.391Z,95378.13
2019-02-07T12:55:52.241Z,95372.70
2019-02-07T12:56:58.205Z,95373.45
2019-02-07T12:58:09.064Z,95375.37
2019-02-07T12:59:22.958Z,95379.03
2019-02-07T13:00:44.313Z,95378.67
2019-02-07T13:02:05.303Z,95373.09
2019-02-07T13:03:13.275Z,95374.26
2019-02-07T13:04:18.652Z,95378.83
2019-02-07T13:05:46.653Z,95374.02
2019-02-07T13:06:52.661Z,95372.56
2019-02-07T13:07:58.040Z,95377.23
2019-02-07T13:09:05.881Z,95377.42
2019-02-07T13:10:13.129Z,95371.30
2019-02-07T13:11:18.181Z,95375.42
2019-02-07T13:12:38.117Z,95377.13
2019-02-07T13:13:52.069Z,95374.13
2019-02-07T13:14:57.341Z,95373.22
2019-02-07T13:16:02.556Z,95371.91
2019-02-07T13:17:10.559Z,95373.00
2019-02-07T13:18:21.421Z,95371.15
2019-02-07T13:19:42.760Z,95376.98
2019-02-07T13:20:47.972Z,95374.96
2019-02-07T13:22:06.772Z,95367.95
2019-02-07T13:23:12.046Z,95364.83
2019-02-07T13:24:35.281Z,95371.25
2019-02-07T13:25:49.371Z,95366.83
2019-02-07T13:26:57.112Z,95365.41
2019-02-07T13:28:02.200Z,95367.94
2019-02-07T13:29:22.614Z,95369.48
2019-02-07T13:30:30.597Z,95369.48
2019-02-07T13:31:44.416Z,95364.08
2019-02-07T13:32:49.562Z,95369.52
2019-02-07T13:34:03.422Z,95368.06
2019-02-07T13:35:16.149Z,95371.98
2019-02-07T13:36:24.357Z,95368.76
2019-02-07T13:37:38.441Z,95368.06
2019-02-07T13:38:55.117Z,95368.86
2019-02-07T13:40:16.351Z,95370.01
2019-02-07T13:41:36.406Z,95375.27
2019-02-07T13:42:50.709Z,95368.19
2019-02-07T13:44:04.634Z,95373.81
2019-02-07T13:45:30.900Z,95365.79
2019-02-07T13:46:51.352Z,95364.66
2019-02-07T13:48:08.343Z,95367.52
2019-02-07T13:49:22.418Z,95365.30
2019-02-07T13:50:27.660Z,95364.91
2019-02-07T13:51:35.351Z,95364.91
2019-02-07T13:52:56.508Z,95369.73
2019-02-07T13:54:16.750Z,95366.58
2019-02-07T13:55:27.923Z,95370.53
2019-02-07T13:56:48.295Z,95369.98
2019-02-07T13:57:53.509Z,95368.61
2019-02-07T13:58:58.797Z,95372.98
2019-02-07T14:00:04.290Z,95371.71